sensor_id;sensor_type;location;lat;lon;timestamp;P1;durP1;ratioP1;P2;durP2;ratioP2
9720;SDS011;4899;42.644;23.366;2023-06-10T00:01:56;11.87;;;10.40;;
9720;SDS011;4899;42.644;23.366;2023-06-10T00:04:24;11.67;;;10.10;;
9720;SDS011;4899;42.644;23.366;2023-06-10T00:06:50;14.30;;;10.73;;
9720;SDS011;4899;42.644;23.366;2023-06-10T00:09:16;12.93;;;10.50;;
9720;SDS011;4899;42.644;23.366;2023-06-10T00:11:44;12.47;;;11.17;;
9720;SDS011;4899;42.644;23.366;2023-06-10T00:14:09;12.27;;;11.17;;
9720;SDS011;4899;42.644;23.366;2023-06-10T00:16:35;13.23;;;10.90;;
9720;SDS011;4899;42.644;23.366;2023-06-10T00:19:01;11.37;;;10.13;;
9720;SDS011;4899;42.644;23.366;2023-06-10T00:21:29;13.40;;;11.73;;
9720;SDS011;4899;42.644;23.366;2023-06-10T00:23:55;12.17;;;11.03;;
9720;SDS011;4899;42.644;23.366;2023-06-10T00:26:23;12.03;;;10.77;;
9720;SDS011;4899;42.644;23.366;2023-06-10T00:28:49;14.90;;;11.40;;
9720;SDS011;4899;42.644;23.366;2023-06-10T00:31:16;12.43;;;11.27;;
9720;SDS011;4899;42.644;23.366;2023-06-10T00:33:42;12.00;;;10.77;;
9720;SDS011;4899;42.644;23.366;2023-06-10T00:36:08;12.60;;;11.33;;
9720;SDS011;4899;42.644;23.366;2023-06-10T00:38:34;13.47;;;12.00;;
9720;SDS011;4899;42.644;23.366;2023-06-10T00:40:59;12.13;;;11.00;;
9720;SDS011;4899;42.644;23.366;2023-06-10T00:43:25;12.80;;;11.63;;
9720;SDS011;4899;42.644;23.366;2023-06-10T00:45:51;12.87;;;11.67;;
9720;SDS011;4899;42.644;23.366;2023-06-10T00:48:16;11.83;;;10.73;;
9720;SDS011;4899;42.644;23.366;2023-06-10T00:50:43;15.37;;;13.73;;
9720;SDS011;4899;42.644;23.366;2023-06-10T00:53:09;13.70;;;12.47;;
9720;SDS011;4899;42.644;23.366;2023-06-10T00:55:35;12.87;;;11.77;;
9720;SDS011;4899;42.644;23.366;2023-06-10T00:58:00;15.60;;;14.10;;
9720;SDS011;4899;42.644;23.366;2023-06-10T01:00:27;15.60;;;14.20;;
9720;SDS011;4899;42.644;23.366;2023-06-10T01:02:53;15.63;;;14.23;;
9720;SDS011;4899;42.644;23.366;2023-06-10T01:05:18;16.27;;;14.37;;
9720;SDS011;4899;42.644;23.366;2023-06-10T01:10:33;15.33;;;13.80;;
9720;SDS011;4899;42.644;23.366;2023-06-10T01:13:07;15.00;;;13.60;;
9720;SDS011;4899;42.644;23.366;2023-06-10T01:15:36;14.83;;;13.57;;
9720;SDS011;4899;42.644;23.366;2023-06-10T01:18:03;16.27;;;14.77;;
9720;SDS011;4899;42.644;23.366;2023-06-10T01:20:33;15.33;;;13.93;;
9720;SDS011;4899;42.644;23.366;2023-06-10T01:23:03;14.73;;;13.43;;
9720;SDS011;4899;42.644;23.366;2023-06-10T01:25:29;14.93;;;13.40;;
9720;SDS011;4899;42.644;23.366;2023-06-10T01:28:02;16.77;;;15.27;;
9720;SDS011;4899;42.644;23.366;2023-06-10T01:30:40;17.70;;;15.97;;
9720;SDS011;4899;42.644;23.366;2023-06-10T01:33:14;17.07;;;15.57;;
9720;SDS011;4899;42.644;23.366;2023-06-10T01:35:44;18.53;;;16.73;;
9720;SDS011;4899;42.644;23.366;2023-06-10T01:38:12;17.83;;;16.23;;
9720;SDS011;4899;42.644;23.366;2023-06-10T01:40:39;15.73;;;14.23;;
9720;SDS011;4899;42.644;23.366;2023-06-10T01:43:06;15.73;;;14.37;;
9720;SDS011;4899;42.644;23.366;2023-06-10T01:45:31;15.83;;;14.13;;
9720;SDS011;4899;42.644;23.366;2023-06-10T01:47:57;16.33;;;14.73;;
9720;SDS011;4899;42.644;23.366;2023-06-10T01:50:22;17.10;;;15.10;;
9720;SDS011;4899;42.644;23.366;2023-06-10T01:52:47;17.77;;;16.10;;
9720;SDS011;4899;42.644;23.366;2023-06-10T01:55:13;15.57;;;14.07;;
9720;SDS011;4899;42.644;23.366;2023-06-10T01:57:38;16.53;;;14.93;;
9720;SDS011;4899;42.644;23.366;2023-06-10T02:00:04;15.30;;;13.97;;
9720;SDS011;4899;42.644;23.366;2023-06-10T02:02:30;16.03;;;14.37;;
9720;SDS011;4899;42.644;23.366;2023-06-10T02:04:55;16.73;;;15.13;;
9720;SDS011;4899;42.644;23.366;2023-06-10T02:07:22;15.50;;;14.00;;
9720;SDS011;4899;42.644;23.366;2023-06-10T02:09:47;15.27;;;13.97;;
9720;SDS011;4899;42.644;23.366;2023-06-10T02:12:13;16.03;;;14.43;;
9720;SDS011;4899;42.644;23.366;2023-06-10T02:14:38;15.77;;;13.87;;
9720;SDS011;4899;42.644;23.366;2023-06-10T02:17:03;15.03;;;13.70;;
9720;SDS011;4899;42.644;23.366;2023-06-10T02:19:29;13.57;;;12.37;;
9720;SDS011;4899;42.644;23.366;2023-06-10T02:21:55;14.37;;;12.93;;
9720;SDS011;4899;42.644;23.366;2023-06-10T02:24:21;12.50;;;11.43;;
9720;SDS011;4899;42.644;23.366;2023-06-10T02:26:46;13.30;;;12.07;;
9720;SDS011;4899;42.644;23.366;2023-06-10T02:29:13;11.90;;;10.70;;
9720;SDS011;4899;42.644;23.366;2023-06-10T02:31:38;10.30;;;9.30;;
9720;SDS011;4899;42.644;23.366;2023-06-10T02:34:04;10.23;;;9.17;;
9720;SDS011;4899;42.644;23.366;2023-06-10T02:36:30;9.43;;;8.63;;
9720;SDS011;4899;42.644;23.366;2023-06-10T02:38:55;11.73;;;8.13;;
9720;SDS011;4899;42.644;23.366;2023-06-10T02:41:21;8.33;;;7.57;;
9720;SDS011;4899;42.644;23.366;2023-06-10T02:43:47;9.17;;;8.27;;
9720;SDS011;4899;42.644;23.366;2023-06-10T02:46:12;9.47;;;8.67;;
9720;SDS011;4899;42.644;23.366;2023-06-10T02:48:41;9.57;;;8.70;;
9720;SDS011;4899;42.644;23.366;2023-06-10T02:51:09;9.13;;;8.27;;
9720;SDS011;4899;42.644;23.366;2023-06-10T02:53:35;8.80;;;7.97;;
9720;SDS011;4899;42.644;23.366;2023-06-10T02:56:00;10.03;;;8.53;;
9720;SDS011;4899;42.644;23.366;2023-06-10T02:58:26;10.33;;;9.43;;
9720;SDS011;4899;42.644;23.366;2023-06-10T03:00:52;11.73;;;10.53;;
9720;SDS011;4899;42.644;23.366;2023-06-10T03:03:17;11.77;;;10.70;;
9720;SDS011;4899;42.644;23.366;2023-06-10T03:05:43;12.17;;;11.13;;
9720;SDS011;4899;42.644;23.366;2023-06-10T03:08:09;12.13;;;10.47;;
9720;SDS011;4899;42.644;23.366;2023-06-10T03:10:34;11.17;;;10.07;;
9720;SDS011;4899;42.644;23.366;2023-06-10T03:12:59;11.93;;;10.80;;
9720;SDS011;4899;42.644;23.366;2023-06-10T03:15:25;11.37;;;10.47;;
9720;SDS011;4899;42.644;23.366;2023-06-10T03:17:50;12.80;;;11.53;;
9720;SDS011;4899;42.644;23.366;2023-06-10T03:20:16;13.13;;;11.27;;
9720;SDS011;4899;42.644;23.366;2023-06-10T03:22:41;13.53;;;11.07;;
9720;SDS011;4899;42.644;23.366;2023-06-10T03:25:07;13.00;;;11.67;;
9720;SDS011;4899;42.644;23.366;2023-06-10T03:27:38;13.17;;;11.90;;
9720;SDS011;4899;42.644;23.366;2023-06-10T03:30:05;14.60;;;11.83;;
9720;SDS011;4899;42.644;23.366;2023-06-10T03:32:31;13.57;;;11.77;;
9720;SDS011;4899;42.644;23.366;2023-06-10T03:34:56;15.27;;;11.73;;
9720;SDS011;4899;42.644;23.366;2023-06-10T03:37:22;15.93;;;13.70;;
9720;SDS011;4899;42.644;23.366;2023-06-10T03:39:48;15.30;;;13.80;;
9720;SDS011;4899;42.644;23.366;2023-06-10T03:42:13;20.53;;;14.53;;
9720;SDS011;4899;42.644;23.366;2023-06-10T03:44:38;20.33;;;15.80;;
9720;SDS011;4899;42.644;23.366;2023-06-10T03:47:05;16.50;;;15.03;;
9720;SDS011;4899;42.644;23.366;2023-06-10T03:49:30;16.73;;;15.17;;
9720;SDS011;4899;42.644;23.366;2023-06-10T03:51:56;16.17;;;14.47;;
9720;SDS011;4899;42.644;23.366;2023-06-10T03:54:21;17.43;;;15.13;;
9720;SDS011;4899;42.644;23.366;2023-06-10T03:56:47;17.50;;;15.90;;
9720;SDS011;4899;42.644;23.366;2023-06-10T03:59:16;18.87;;;17.03;;
9720;SDS011;4899;42.644;23.366;2023-06-10T04:01:42;17.97;;;16.20;;
9720;SDS011;4899;42.644;23.366;2023-06-10T04:04:08;18.07;;;16.27;;
9720;SDS011;4899;42.644;23.366;2023-06-10T04:06:34;18.10;;;16.40;;
9720;SDS011;4899;42.644;23.366;2023-06-10T04:08:59;17.70;;;15.83;;
9720;SDS011;4899;42.644;23.366;2023-06-10T04:11:25;16.63;;;14.93;;
9720;SDS011;4899;42.644;23.366;2023-06-10T04:13:51;16.63;;;15.07;;
9720;SDS011;4899;42.644;23.366;2023-06-10T04:16:17;18.10;;;16.53;;
9720;SDS011;4899;42.644;23.366;2023-06-10T04:18:42;18.13;;;16.10;;
9720;SDS011;4899;42.644;23.366;2023-06-10T04:21:08;17.60;;;15.90;;
9720;SDS011;4899;42.644;23.366;2023-06-10T04:23:36;17.67;;;16.07;;
9720;SDS011;4899;42.644;23.366;2023-06-10T04:26:04;18.00;;;16.37;;
9720;SDS011;4899;42.644;23.366;2023-06-10T04:28:30;18.50;;;16.60;;
9720;SDS011;4899;42.644;23.366;2023-06-10T04:30:56;20.23;;;17.67;;
9720;SDS011;4899;42.644;23.366;2023-06-10T04:33:22;18.63;;;16.73;;
9720;SDS011;4899;42.644;23.366;2023-06-10T04:35:48;19.50;;;17.67;;
9720;SDS011;4899;42.644;23.366;2023-06-10T04:38:13;18.67;;;16.97;;
9720;SDS011;4899;42.644;23.366;2023-06-10T04:40:39;16.50;;;14.77;;
9720;SDS011;4899;42.644;23.366;2023-06-10T04:43:05;17.77;;;16.17;;
9720;SDS011;4899;42.644;23.366;2023-06-10T04:45:30;18.20;;;16.60;;
9720;SDS011;4899;42.644;23.366;2023-06-10T04:47:56;17.17;;;15.63;;
9720;SDS011;4899;42.644;23.366;2023-06-10T04:50:23;17.33;;;15.73;;
9720;SDS011;4899;42.644;23.366;2023-06-10T04:52:48;16.80;;;15.27;;
9720;SDS011;4899;42.644;23.366;2023-06-10T04:55:15;16.07;;;13.37;;
9720;SDS011;4899;42.644;23.366;2023-06-10T04:57:41;15.23;;;13.77;;
9720;SDS011;4899;42.644;23.366;2023-06-10T05:00:06;13.67;;;12.47;;
9720;SDS011;4899;42.644;23.366;2023-06-10T05:02:33;14.50;;;13.13;;
9720;SDS011;4899;42.644;23.366;2023-06-10T05:04:59;14.47;;;13.27;;
9720;SDS011;4899;42.644;23.366;2023-06-10T05:07:25;15.93;;;14.43;;
9720;SDS011;4899;42.644;23.366;2023-06-10T05:09:50;15.37;;;13.93;;
9720;SDS011;4899;42.644;23.366;2023-06-10T05:12:15;14.50;;;13.00;;
9720;SDS011;4899;42.644;23.366;2023-06-10T05:14:41;14.43;;;12.93;;
9720;SDS011;4899;42.644;23.366;2023-06-10T05:17:06;17.10;;;14.80;;
9720;SDS011;4899;42.644;23.366;2023-06-10T05:19:32;13.67;;;12.57;;
9720;SDS011;4899;42.644;23.366;2023-06-10T05:21:57;14.83;;;13.70;;
9720;SDS011;4899;42.644;23.366;2023-06-10T05:24:23;14.87;;;13.47;;
9720;SDS011;4899;42.644;23.366;2023-06-10T05:26:48;15.27;;;13.83;;
9720;SDS011;4899;42.644;23.366;2023-06-10T05:29:14;15.17;;;13.60;;
9720;SDS011;4899;42.644;23.366;2023-06-10T05:31:40;15.40;;;14.10;;
9720;SDS011;4899;42.644;23.366;2023-06-10T05:34:06;15.57;;;14.27;;
9720;SDS011;4899;42.644;23.366;2023-06-10T05:36:32;16.60;;;15.00;;
9720;SDS011;4899;42.644;23.366;2023-06-10T05:38:57;19.27;;;14.60;;
9720;SDS011;4899;42.644;23.366;2023-06-10T05:41:23;14.97;;;13.67;;
9720;SDS011;4899;42.644;23.366;2023-06-10T05:43:48;15.03;;;13.60;;
9720;SDS011;4899;42.644;23.366;2023-06-10T05:46:14;14.13;;;12.80;;
9720;SDS011;4899;42.644;23.366;2023-06-10T05:48:40;15.03;;;13.63;;
9720;SDS011;4899;42.644;23.366;2023-06-10T05:51:06;14.57;;;13.07;;
9720;SDS011;4899;42.644;23.366;2023-06-10T05:53:32;15.03;;;13.63;;
9720;SDS011;4899;42.644;23.366;2023-06-10T05:55:57;15.20;;;13.90;;
9720;SDS011;4899;42.644;23.366;2023-06-10T05:58:23;14.27;;;13.07;;
9720;SDS011;4899;42.644;23.366;2023-06-10T06:00:49;17.60;;;15.67;;
9720;SDS011;4899;42.644;23.366;2023-06-10T06:03:15;18.30;;;16.50;;
9720;SDS011;4899;42.644;23.366;2023-06-10T06:05:41;17.77;;;16.07;;
9720;SDS011;4899;42.644;23.366;2023-06-10T06:08:06;17.13;;;15.63;;
9720;SDS011;4899;42.644;23.366;2023-06-10T06:10:33;16.60;;;15.13;;
9720;SDS011;4899;42.644;23.366;2023-06-10T06:12:59;16.27;;;14.67;;
9720;SDS011;4899;42.644;23.366;2023-06-10T06:15:25;17.30;;;15.70;;
9720;SDS011;4899;42.644;23.366;2023-06-10T06:17:51;17.07;;;15.67;;
9720;SDS011;4899;42.644;23.366;2023-06-10T06:20:21;17.50;;;15.97;;
9720;SDS011;4899;42.644;23.366;2023-06-10T06:22:47;16.03;;;14.63;;
9720;SDS011;4899;42.644;23.366;2023-06-10T06:25:12;17.77;;;16.00;;
9720;SDS011;4899;42.644;23.366;2023-06-10T06:27:38;17.23;;;15.63;;
9720;SDS011;4899;42.644;23.366;2023-06-10T06:30:03;17.20;;;15.80;;
9720;SDS011;4899;42.644;23.366;2023-06-10T06:32:29;17.00;;;15.37;;
9720;SDS011;4899;42.644;23.366;2023-06-10T06:34:55;17.87;;;16.10;;
9720;SDS011;4899;42.644;23.366;2023-06-10T06:37:24;16.57;;;15.03;;
9720;SDS011;4899;42.644;23.366;2023-06-10T06:39:50;16.97;;;15.47;;
9720;SDS011;4899;42.644;23.366;2023-06-10T06:42:17;17.43;;;15.77;;
9720;SDS011;4899;42.644;23.366;2023-06-10T06:44:43;15.50;;;14.03;;
9720;SDS011;4899;42.644;23.366;2023-06-10T06:47:08;14.07;;;12.67;;
9720;SDS011;4899;42.644;23.366;2023-06-10T06:49:34;14.13;;;12.83;;
9720;SDS011;4899;42.644;23.366;2023-06-10T06:51:59;12.57;;;11.33;;
9720;SDS011;4899;42.644;23.366;2023-06-10T06:54:24;13.97;;;11.90;;
9720;SDS011;4899;42.644;23.366;2023-06-10T06:56:50;12.43;;;11.13;;
9720;SDS011;4899;42.644;23.366;2023-06-10T06:59:16;12.07;;;10.87;;
9720;SDS011;4899;42.644;23.366;2023-06-10T07:01:44;12.80;;;11.60;;
9720;SDS011;4899;42.644;23.366;2023-06-10T07:04:10;12.43;;;11.17;;
9720;SDS011;4899;42.644;23.366;2023-06-10T07:06:36;12.17;;;11.00;;
9720;SDS011;4899;42.644;23.366;2023-06-10T07:09:01;11.97;;;10.97;;
9720;SDS011;4899;42.644;23.366;2023-06-10T07:11:27;10.73;;;9.73;;
9720;SDS011;4899;42.644;23.366;2023-06-10T07:13:52;10.27;;;9.33;;
9720;SDS011;4899;42.644;23.366;2023-06-10T07:16:19;9.23;;;8.37;;
9720;SDS011;4899;42.644;23.366;2023-06-10T07:18:46;8.13;;;7.47;;
9720;SDS011;4899;42.644;23.366;2023-06-10T07:21:11;8.77;;;8.00;;
9720;SDS011;4899;42.644;23.366;2023-06-10T07:23:37;8.67;;;7.23;;
9720;SDS011;4899;42.644;23.366;2023-06-10T07:26:02;8.07;;;7.10;;
9720;SDS011;4899;42.644;23.366;2023-06-10T07:28:28;7.10;;;6.40;;
9720;SDS011;4899;42.644;23.366;2023-06-10T07:30:53;8.67;;;6.50;;
9720;SDS011;4899;42.644;23.366;2023-06-10T07:33:19;7.37;;;6.23;;
9720;SDS011;4899;42.644;23.366;2023-06-10T07:35:44;7.77;;;5.47;;
9720;SDS011;4899;42.644;23.366;2023-06-10T07:38:10;7.83;;;6.13;;
9720;SDS011;4899;42.644;23.366;2023-06-10T07:40:35;6.57;;;5.83;;
9720;SDS011;4899;42.644;23.366;2023-06-10T07:43:01;7.33;;;6.60;;
9720;SDS011;4899;42.644;23.366;2023-06-10T07:45:26;7.63;;;5.87;;
9720;SDS011;4899;42.644;23.366;2023-06-10T07:47:52;7.97;;;5.80;;
9720;SDS011;4899;42.644;23.366;2023-06-10T07:50:17;6.70;;;5.80;;
9720;SDS011;4899;42.644;23.366;2023-06-10T07:52:43;6.00;;;5.50;;
9720;SDS011;4899;42.644;23.366;2023-06-10T07:55:08;8.93;;;6.67;;
9720;SDS011;4899;42.644;23.366;2023-06-10T07:57:34;7.30;;;6.60;;
9720;SDS011;4899;42.644;23.366;2023-06-10T08:00:02;8.53;;;7.73;;
9720;SDS011;4899;42.644;23.366;2023-06-10T08:02:29;8.40;;;5.80;;
9720;SDS011;4899;42.644;23.366;2023-06-10T08:04:55;5.67;;;5.17;;
9720;SDS011;4899;42.644;23.366;2023-06-10T08:07:20;6.27;;;5.63;;
9720;SDS011;4899;42.644;23.366;2023-06-10T08:09:47;7.07;;;6.17;;
9720;SDS011;4899;42.644;23.366;2023-06-10T08:12:12;7.03;;;6.33;;
9720;SDS011;4899;42.644;23.366;2023-06-10T08:14:38;8.10;;;7.10;;
9720;SDS011;4899;42.644;23.366;2023-06-10T08:17:03;8.07;;;6.67;;
9720;SDS011;4899;42.644;23.366;2023-06-10T08:19:31;8.50;;;7.00;;
9720;SDS011;4899;42.644;23.366;2023-06-10T08:21:56;8.57;;;6.30;;
9720;SDS011;4899;42.644;23.366;2023-06-10T08:24:22;6.23;;;5.63;;
9720;SDS011;4899;42.644;23.366;2023-06-10T08:26:47;5.17;;;4.17;;
9720;SDS011;4899;42.644;23.366;2023-06-10T08:29:12;6.43;;;5.00;;
9720;SDS011;4899;42.644;23.366;2023-06-10T08:31:42;3.87;;;3.57;;
9720;SDS011;4899;42.644;23.366;2023-06-10T08:34:08;4.30;;;4.00;;
9720;SDS011;4899;42.644;23.366;2023-06-10T08:36:34;3.87;;;3.50;;
9720;SDS011;4899;42.644;23.366;2023-06-10T08:38:59;3.73;;;3.43;;
9720;SDS011;4899;42.644;23.366;2023-06-10T08:41:25;4.37;;;3.97;;
9720;SDS011;4899;42.644;23.366;2023-06-10T08:44:09;5.33;;;4.30;;
9720;SDS011;4899;42.644;23.366;2023-06-10T08:46:44;5.70;;;3.80;;
9720;SDS011;4899;42.644;23.366;2023-06-10T08:49:10;4.13;;;3.83;;
9720;SDS011;4899;42.644;23.366;2023-06-10T08:51:43;4.57;;;4.17;;
9720;SDS011;4899;42.644;23.366;2023-06-10T08:54:15;4.90;;;4.00;;
9720;SDS011;4899;42.644;23.366;2023-06-10T08:56:48;5.93;;;4.13;;
9720;SDS011;4899;42.644;23.366;2023-06-10T08:59:16;4.27;;;3.87;;
9720;SDS011;4899;42.644;23.366;2023-06-10T09:01:43;6.33;;;4.07;;
9720;SDS011;4899;42.644;23.366;2023-06-10T09:04:09;4.87;;;4.03;;
9720;SDS011;4899;42.644;23.366;2023-06-10T09:06:36;6.53;;;4.73;;
9720;SDS011;4899;42.644;23.366;2023-06-10T09:09:03;4.23;;;3.33;;
9720;SDS011;4899;42.644;23.366;2023-06-10T09:11:30;4.40;;;4.00;;
9720;SDS011;4899;42.644;23.366;2023-06-10T09:13:56;4.47;;;3.60;;
9720;SDS011;4899;42.644;23.366;2023-06-10T09:16:22;5.23;;;4.10;;
9720;SDS011;4899;42.644;23.366;2023-06-10T09:18:48;4.73;;;3.50;;
9720;SDS011;4899;42.644;23.366;2023-06-10T09:21:13;4.03;;;3.60;;
9720;SDS011;4899;42.644;23.366;2023-06-10T09:23:39;6.77;;;3.80;;
9720;SDS011;4899;42.644;23.366;2023-06-10T09:26:08;4.73;;;2.87;;
9720;SDS011;4899;42.644;23.366;2023-06-10T09:28:35;3.87;;;3.20;;
9720;SDS011;4899;42.644;23.366;2023-06-10T09:31:04;2.90;;;2.70;;
9720;SDS011;4899;42.644;23.366;2023-06-10T09:33:31;2.87;;;2.57;;
9720;SDS011;4899;42.644;23.366;2023-06-10T09:35:56;3.10;;;2.80;;
9720;SDS011;4899;42.644;23.366;2023-06-10T09:38:29;3.20;;;2.70;;
9720;SDS011;4899;42.644;23.366;2023-06-10T09:40:56;3.00;;;2.70;;
9720;SDS011;4899;42.644;23.366;2023-06-10T09:43:23;3.33;;;3.03;;
9720;SDS011;4899;42.644;23.366;2023-06-10T09:46:03;3.30;;;3.10;;
9720;SDS011;4899;42.644;23.366;2023-06-10T09:48:28;2.80;;;2.60;;
9720;SDS011;4899;42.644;23.366;2023-06-10T09:50:54;2.40;;;2.30;;
9720;SDS011;4899;42.644;23.366;2023-06-10T09:53:20;3.00;;;2.70;;
9720;SDS011;4899;42.644;23.366;2023-06-10T09:55:45;3.70;;;3.40;;
9720;SDS011;4899;42.644;23.366;2023-06-10T09:58:11;3.87;;;3.30;;
9720;SDS011;4899;42.644;23.366;2023-06-10T10:00:36;4.57;;;3.10;;
9720;SDS011;4899;42.644;23.366;2023-06-10T10:03:01;3.70;;;3.40;;
9720;SDS011;4899;42.644;23.366;2023-06-10T10:05:27;5.37;;;3.63;;
9720;SDS011;4899;42.644;23.366;2023-06-10T10:07:54;3.17;;;2.77;;
9720;SDS011;4899;42.644;23.366;2023-06-10T10:10:21;3.67;;;3.00;;
9720;SDS011;4899;42.644;23.366;2023-06-10T10:12:48;3.60;;;3.20;;
9720;SDS011;4899;42.644;23.366;2023-06-10T10:15:17;5.00;;;3.40;;
9720;SDS011;4899;42.644;23.366;2023-06-10T10:17:48;5.80;;;3.20;;
9720;SDS011;4899;42.644;23.366;2023-06-10T10:20:19;3.40;;;3.10;;
9720;SDS011;4899;42.644;23.366;2023-06-10T10:22:47;3.50;;;3.20;;
9720;SDS011;4899;42.644;23.366;2023-06-10T10:25:21;3.47;;;3.27;;
9720;SDS011;4899;42.644;23.366;2023-06-10T10:27:51;3.63;;;3.23;;
9720;SDS011;4899;42.644;23.366;2023-06-10T10:30:20;4.83;;;3.37;;
9720;SDS011;4899;42.644;23.366;2023-06-10T10:35:48;3.73;;;3.30;;
9720;SDS011;4899;42.644;23.366;2023-06-10T10:38:15;4.13;;;3.40;;
9720;SDS011;4899;42.644;23.366;2023-06-10T10:40:40;6.77;;;3.33;;
9720;SDS011;4899;42.644;23.366;2023-06-10T10:43:07;3.40;;;3.13;;
9720;SDS011;4899;42.644;23.366;2023-06-10T10:45:34;3.30;;;3.10;;
9720;SDS011;4899;42.644;23.366;2023-06-10T10:48:04;3.58;;;3.25;;
9720;SDS011;4899;42.644;23.366;2023-06-10T10:50:36;3.85;;;3.05;;
9720;SDS011;4899;42.644;23.366;2023-06-10T10:53:03;3.28;;;2.97;;
9720;SDS011;4899;42.644;23.366;2023-06-10T10:55:29;3.50;;;3.20;;
9720;SDS011;4899;42.644;23.366;2023-06-10T11:00:26;3.30;;;3.00;;
9720;SDS011;4899;42.644;23.366;2023-06-10T11:02:52;3.45;;;3.15;;
9720;SDS011;4899;42.644;23.366;2023-06-10T11:05:19;3.45;;;3.25;;
9720;SDS011;4899;42.644;23.366;2023-06-10T11:07:57;4.30;;;3.28;;
9720;SDS011;4899;42.644;23.366;2023-06-10T11:10:29;3.30;;;3.00;;
9720;SDS011;4899;42.644;23.366;2023-06-10T11:12:59;6.45;;;5.85;;
9720;SDS011;4899;42.644;23.366;2023-06-10T11:15:26;18.02;;;16.20;;
9720;SDS011;4899;42.644;23.366;2023-06-10T11:21:00;5.95;;;4.13;;
9720;SDS011;4899;42.644;23.366;2023-06-10T11:23:30;3.30;;;3.10;;
9720;SDS011;4899;42.644;23.366;2023-06-10T11:31:19;2.95;;;2.65;;
9720;SDS011;4899;42.644;23.366;2023-06-10T11:33:48;3.97;;;3.22;;
9720;SDS011;4899;42.644;23.366;2023-06-10T11:36:19;3.50;;;3.30;;
9720;SDS011;4899;42.644;23.366;2023-06-10T11:38:44;3.95;;;2.83;;
9720;SDS011;4899;42.644;23.366;2023-06-10T11:41:11;3.28;;;2.90;;
9720;SDS011;4899;42.644;23.366;2023-06-10T11:43:40;2.88;;;2.67;;
9720;SDS011;4899;42.644;23.366;2023-06-10T11:46:11;3.08;;;2.88;;
9720;SDS011;4899;42.644;23.366;2023-06-10T11:48:37;4.00;;;3.33;;
9720;SDS011;4899;42.644;23.366;2023-06-10T11:51:06;3.30;;;3.10;;
9720;SDS011;4899;42.644;23.366;2023-06-10T11:53:32;4.07;;;3.45;;
9720;SDS011;4899;42.644;23.366;2023-06-10T11:55:57;8.13;;;3.58;;
9720;SDS011;4899;42.644;23.366;2023-06-10T11:58:23;3.45;;;3.17;;
9720;SDS011;4899;42.644;23.366;2023-06-10T12:00:55;3.83;;;2.92;;
9720;SDS011;4899;42.644;23.366;2023-06-10T12:03:26;3.40;;;3.00;;
9720;SDS011;4899;42.644;23.366;2023-06-10T12:06:04;3.60;;;3.10;;
9720;SDS011;4899;42.644;23.366;2023-06-10T12:08:31;3.92;;;3.05;;
9720;SDS011;4899;42.644;23.366;2023-06-10T12:10:57;4.18;;;3.33;;
9720;SDS011;4899;42.644;23.366;2023-06-10T12:13:26;5.00;;;2.67;;
9720;SDS011;4899;42.644;23.366;2023-06-10T12:15:52;3.20;;;3.00;;
9720;SDS011;4899;42.644;23.366;2023-06-10T12:18:19;3.20;;;2.90;;
9720;SDS011;4899;42.644;23.366;2023-06-10T12:20:48;3.03;;;2.83;;
9720;SDS011;4899;42.644;23.366;2023-06-10T12:23:15;3.78;;;3.47;;
9720;SDS011;4899;42.644;23.366;2023-06-10T12:25:51;4.20;;;3.55;;
9720;SDS011;4899;42.644;23.366;2023-06-10T12:28:24;17.05;;;15.25;;
9720;SDS011;4899;42.644;23.366;2023-06-10T12:30:50;50.63;;;36.35;;
9720;SDS011;4899;42.644;23.366;2023-06-10T12:33:19;12.10;;;9.15;;
9720;SDS011;4899;42.644;23.366;2023-06-10T12:35:50;3.40;;;3.20;;
9720;SDS011;4899;42.644;23.366;2023-06-10T12:38:23;3.40;;;3.10;;
9720;SDS011;4899;42.644;23.366;2023-06-10T12:40:49;3.95;;;3.42;;
9720;SDS011;4899;42.644;23.366;2023-06-10T12:43:24;3.72;;;3.42;;
9720;SDS011;4899;42.644;23.366;2023-06-10T12:45:51;3.40;;;3.10;;
9720;SDS011;4899;42.644;23.366;2023-06-10T12:48:20;2.70;;;2.47;;
9720;SDS011;4899;42.644;23.366;2023-06-10T12:50:56;2.92;;;2.72;;
9720;SDS011;4899;42.644;23.366;2023-06-10T12:53:24;3.10;;;2.90;;
9720;SDS011;4899;42.644;23.366;2023-06-10T12:55:51;3.17;;;2.88;;
9720;SDS011;4899;42.644;23.366;2023-06-10T12:58:17;3.60;;;3.30;;
9720;SDS011;4899;42.644;23.366;2023-06-10T13:00:44;8.93;;;3.38;;
9720;SDS011;4899;42.644;23.366;2023-06-10T13:03:10;3.40;;;3.10;;
9720;SDS011;4899;42.644;23.366;2023-06-10T13:05:36;3.50;;;3.20;;
9720;SDS011;4899;42.644;23.366;2023-06-10T13:08:03;3.80;;;3.30;;
9720;SDS011;4899;42.644;23.366;2023-06-10T13:10:33;4.60;;;3.15;;
9720;SDS011;4899;42.644;23.366;2023-06-10T13:12:59;2.80;;;2.60;;
9720;SDS011;4899;42.644;23.366;2023-06-10T13:15:25;5.68;;;3.08;;
9720;SDS011;4899;42.644;23.366;2023-06-10T13:17:51;4.57;;;2.78;;
9720;SDS011;4899;42.644;23.366;2023-06-10T13:20:17;3.15;;;2.92;;
9720;SDS011;4899;42.644;23.366;2023-06-10T13:22:43;3.20;;;3.00;;
9720;SDS011;4899;42.644;23.366;2023-06-10T13:25:09;3.67;;;3.20;;
9720;SDS011;4899;42.644;23.366;2023-06-10T13:27:35;4.78;;;3.15;;
9720;SDS011;4899;42.644;23.366;2023-06-10T13:30:07;3.03;;;2.78;;
9720;SDS011;4899;42.644;23.366;2023-06-10T13:32:33;2.90;;;2.70;;
9720;SDS011;4899;42.644;23.366;2023-06-10T13:34:59;3.90;;;3.60;;
9720;SDS011;4899;42.644;23.366;2023-06-10T13:37:25;3.60;;;3.22;;
9720;SDS011;4899;42.644;23.366;2023-06-10T13:39:51;3.90;;;3.50;;
9720;SDS011;4899;42.644;23.366;2023-06-10T13:42:19;7.88;;;4.35;;
9720;SDS011;4899;42.644;23.366;2023-06-10T13:44:46;5.53;;;3.85;;
9720;SDS011;4899;42.644;23.366;2023-06-10T13:47:16;5.27;;;3.27;;
9720;SDS011;4899;42.644;23.366;2023-06-10T13:49:42;4.30;;;3.90;;
9720;SDS011;4899;42.644;23.366;2023-06-10T13:52:07;4.43;;;3.93;;
9720;SDS011;4899;42.644;23.366;2023-06-10T13:54:33;4.10;;;3.80;;
9720;SDS011;4899;42.644;23.366;2023-06-10T13:57:01;4.23;;;3.70;;
9720;SDS011;4899;42.644;23.366;2023-06-10T13:59:27;4.77;;;3.97;;
9720;SDS011;4899;42.644;23.366;2023-06-10T14:01:52;4.60;;;4.20;;
9720;SDS011;4899;42.644;23.366;2023-06-10T14:04:18;4.63;;;4.20;;
9720;SDS011;4899;42.644;23.366;2023-06-10T14:06:43;4.47;;;4.07;;
9720;SDS011;4899;42.644;23.366;2023-06-10T14:09:09;5.63;;;4.13;;
9720;SDS011;4899;42.644;23.366;2023-06-10T14:11:35;4.87;;;3.80;;
9720;SDS011;4899;42.644;23.366;2023-06-10T14:14:00;6.97;;;3.93;;
9720;SDS011;4899;42.644;23.366;2023-06-10T14:16:27;5.17;;;3.67;;
9720;SDS011;4899;42.644;23.366;2023-06-10T14:18:52;4.23;;;3.83;;
9720;SDS011;4899;42.644;23.366;2023-06-10T14:21:18;4.33;;;3.80;;
9720;SDS011;4899;42.644;23.366;2023-06-10T14:23:44;4.30;;;4.00;;
9720;SDS011;4899;42.644;23.366;2023-06-10T14:26:10;3.97;;;3.67;;
9720;SDS011;4899;42.644;23.366;2023-06-10T14:28:36;4.30;;;3.93;;
9720;SDS011;4899;42.644;23.366;2023-06-10T14:31:02;3.90;;;3.50;;
9720;SDS011;4899;42.644;23.366;2023-06-10T14:33:27;3.70;;;3.40;;
9720;SDS011;4899;42.644;23.366;2023-06-10T14:35:53;6.20;;;3.77;;
9720;SDS011;4899;42.644;23.366;2023-06-10T14:38:19;4.27;;;3.87;;
9720;SDS011;4899;42.644;23.366;2023-06-10T14:40:44;4.20;;;3.90;;
9720;SDS011;4899;42.644;23.366;2023-06-10T14:43:10;4.67;;;3.57;;
9720;SDS011;4899;42.644;23.366;2023-06-10T14:45:36;4.77;;;3.47;;
9720;SDS011;4899;42.644;23.366;2023-06-10T14:48:03;4.90;;;3.57;;
9720;SDS011;4899;42.644;23.366;2023-06-10T14:50:29;4.13;;;3.57;;
9720;SDS011;4899;42.644;23.366;2023-06-10T14:52:55;4.00;;;3.70;;
9720;SDS011;4899;42.644;23.366;2023-06-10T14:55:20;4.23;;;3.77;;
9720;SDS011;4899;42.644;23.366;2023-06-10T14:57:48;3.57;;;3.27;;
9720;SDS011;4899;42.644;23.366;2023-06-10T15:00:14;5.67;;;3.50;;
9720;SDS011;4899;42.644;23.366;2023-06-10T15:02:42;3.97;;;3.67;;